sensor_id;sensor_type;location;lat;lon;timestamp;P1;durP1;ratioP1;P2;durP2;ratioP2
75236;SDS011;63826;48.100;-1.670;2022-12-13T00:01:36;9.55;;;4.88;;
75236;SDS011;63826;48.100;-1.670;2022-12-13T00:04:03;8.48;;;4.38;;
75236;SDS011;63826;48.100;-1.670;2022-12-13T00:06:29;9.10;;;4.78;;
75236;SDS011;63826;48.100;-1.670;2022-12-13T00:08:55;8.85;;;4.38;;
75236;SDS011;63826;48.100;-1.670;2022-12-13T00:11:22;9.15;;;4.32;;
75236;SDS011;63826;48.100;-1.670;2022-12-13T00:13:48;8.65;;;4.32;;
75236;SDS011;63826;48.100;-1.670;2022-12-13T00:16:15;9.27;;;4.82;;
75236;SDS011;63826;48.100;-1.670;2022-12-13T00:18:41;7.80;;;3.95;;
75236;SDS011;63826;48.100;-1.670;2022-12-13T00:21:08;8.68;;;4.43;;
75236;SDS011;63826;48.100;-1.670;2022-12-13T00:23:36;8.70;;;4.28;;
75236;SDS011;63826;48.100;-1.670;2022-12-13T00:26:03;10.57;;;4.33;;
75236;SDS011;63826;48.100;-1.670;2022-12-13T00:28:29;9.10;;;4.47;;
75236;SDS011;63826;48.100;-1.670;2022-12-13T00:30:56;8.77;;;4.55;;
75236;SDS011;63826;48.100;-1.670;2022-12-13T00:33:22;9.45;;;4.68;;
75236;SDS011;63826;48.100;-1.670;2022-12-13T00:35:48;9.93;;;4.47;;
75236;SDS011;63826;48.100;-1.670;2022-12-13T00:38:14;8.73;;;4.60;;
75236;SDS011;63826;48.100;-1.670;2022-12-13T00:40:40;9.13;;;4.60;;
75236;SDS011;63826;48.100;-1.670;2022-12-13T00:43:06;9.07;;;4.57;;
75236;SDS011;63826;48.100;-1.670;2022-12-13T00:45:32;8.77;;;4.78;;
75236;SDS011;63826;48.100;-1.670;2022-12-13T00:47:58;9.18;;;4.82;;
75236;SDS011;63826;48.100;-1.670;2022-12-13T00:50:24;9.27;;;4.30;;
75236;SDS011;63826;48.100;-1.670;2022-12-13T00:52:50;8.60;;;4.65;;
75236;SDS011;63826;48.100;-1.670;2022-12-13T00:55:17;8.82;;;4.22;;
75236;SDS011;63826;48.100;-1.670;2022-12-13T00:57:43;8.65;;;4.10;;
75236;SDS011;63826;48.100;-1.670;2022-12-13T01:00:09;9.23;;;4.85;;
75236;SDS011;63826;48.100;-1.670;2022-12-13T01:02:36;9.67;;;4.63;;
75236;SDS011;63826;48.100;-1.670;2022-12-13T01:05:02;9.20;;;4.72;;
75236;SDS011;63826;48.100;-1.670;2022-12-13T01:07:28;9.77;;;4.47;;
75236;SDS011;63826;48.100;-1.670;2022-12-13T01:09:56;8.73;;;4.30;;
75236;SDS011;63826;48.100;-1.670;2022-12-13T01:12:22;9.50;;;5.05;;
75236;SDS011;63826;48.100;-1.670;2022-12-13T01:14:48;9.27;;;4.70;;
75236;SDS011;63826;48.100;-1.670;2022-12-13T01:17:14;9.40;;;4.80;;
75236;SDS011;63826;48.100;-1.670;2022-12-13T01:19:40;8.48;;;4.45;;
75236;SDS011;63826;48.100;-1.670;2022-12-13T01:22:06;8.57;;;4.57;;
75236;SDS011;63826;48.100;-1.670;2022-12-13T01:24:32;8.68;;;4.60;;
75236;SDS011;63826;48.100;-1.670;2022-12-13T01:26:58;9.60;;;4.68;;
75236;SDS011;63826;48.100;-1.670;2022-12-13T01:29:25;9.32;;;4.63;;
75236;SDS011;63826;48.100;-1.670;2022-12-13T01:31:51;9.73;;;5.22;;
75236;SDS011;63826;48.100;-1.670;2022-12-13T01:34:18;8.95;;;4.75;;
75236;SDS011;63826;48.100;-1.670;2022-12-13T01:36:45;9.43;;;5.03;;
75236;SDS011;63826;48.100;-1.670;2022-12-13T01:39:12;10.00;;;5.05;;
75236;SDS011;63826;48.100;-1.670;2022-12-13T01:41:38;8.95;;;4.40;;
75236;SDS011;63826;48.100;-1.670;2022-12-13T01:44:05;9.73;;;4.90;;
75236;SDS011;63826;48.100;-1.670;2022-12-13T01:46:32;9.30;;;4.35;;
75236;SDS011;63826;48.100;-1.670;2022-12-13T01:49:03;8.50;;;4.50;;
75236;SDS011;63826;48.100;-1.670;2022-12-13T01:51:51;9.52;;;4.82;;
75236;SDS011;63826;48.100;-1.670;2022-12-13T01:54:18;10.50;;;5.20;;
75236;SDS011;63826;48.100;-1.670;2022-12-13T01:56:50;9.50;;;4.88;;
75236;SDS011;63826;48.100;-1.670;2022-12-13T01:59:17;9.65;;;5.47;;
75236;SDS011;63826;48.100;-1.670;2022-12-13T02:01:43;9.38;;;4.65;;
75236;SDS011;63826;48.100;-1.670;2022-12-13T02:04:10;9.13;;;4.65;;
75236;SDS011;63826;48.100;-1.670;2022-12-13T02:06:38;9.73;;;4.55;;
75236;SDS011;63826;48.100;-1.670;2022-12-13T02:09:06;10.27;;;4.97;;
75236;SDS011;63826;48.100;-1.670;2022-12-13T02:11:33;9.15;;;4.60;;
75236;SDS011;63826;48.100;-1.670;2022-12-13T02:13:59;9.53;;;5.17;;
75236;SDS011;63826;48.100;-1.670;2022-12-13T02:27:27;9.43;;;4.87;;
75236;SDS011;63826;48.100;-1.670;2022-12-13T02:30:18;9.73;;;4.70;;
75236;SDS011;63826;48.100;-1.670;2022-12-13T02:35:33;9.52;;;4.93;;
75236;SDS011;63826;48.100;-1.670;2022-12-13T02:38:10;9.90;;;5.30;;
75236;SDS011;63826;48.100;-1.670;2022-12-13T02:40:46;9.67;;;5.03;;
75236;SDS011;63826;48.100;-1.670;2022-12-13T02:45:58;9.27;;;4.78;;
75236;SDS011;63826;48.100;-1.670;2022-12-13T02:48:29;9.95;;;4.72;;
75236;SDS011;63826;48.100;-1.670;2022-12-13T02:50:57;9.48;;;5.07;;
75236;SDS011;63826;48.100;-1.670;2022-12-13T02:53:24;9.97;;;5.10;;
75236;SDS011;63826;48.100;-1.670;2022-12-13T02:55:51;8.85;;;4.90;;
75236;SDS011;63826;48.100;-1.670;2022-12-13T02:58:18;10.00;;;5.38;;
75236;SDS011;63826;48.100;-1.670;2022-12-13T03:01:48;10.43;;;5.47;;
75236;SDS011;63826;48.100;-1.670;2022-12-13T03:09:55;10.00;;;5.05;;
75236;SDS011;63826;48.100;-1.670;2022-12-13T03:14:52;9.77;;;5.25;;
75236;SDS011;63826;48.100;-1.670;2022-12-13T03:17:20;9.55;;;5.07;;
75236;SDS011;63826;48.100;-1.670;2022-12-13T03:19:50;10.10;;;5.17;;
75236;SDS011;63826;48.100;-1.670;2022-12-13T03:22:16;8.70;;;4.50;;
75236;SDS011;63826;48.100;-1.670;2022-12-13T03:24:43;10.75;;;5.32;;
75236;SDS011;63826;48.100;-1.670;2022-12-13T03:27:09;9.20;;;5.13;;
75236;SDS011;63826;48.100;-1.670;2022-12-13T03:29:35;9.85;;;5.22;;
75236;SDS011;63826;48.100;-1.670;2022-12-13T03:32:02;10.77;;;5.33;;
75236;SDS011;63826;48.100;-1.670;2022-12-13T03:34:28;9.93;;;5.05;;
75236;SDS011;63826;48.100;-1.670;2022-12-13T03:36:54;9.07;;;5.22;;
75236;SDS011;63826;48.100;-1.670;2022-12-13T03:39:20;10.18;;;5.30;;
75236;SDS011;63826;48.100;-1.670;2022-12-13T03:41:47;9.85;;;5.35;;
75236;SDS011;63826;48.100;-1.670;2022-12-13T03:44:13;10.37;;;5.40;;
75236;SDS011;63826;48.100;-1.670;2022-12-13T03:46:39;9.93;;;5.30;;
75236;SDS011;63826;48.100;-1.670;2022-12-13T03:49:05;9.25;;;4.70;;
75236;SDS011;63826;48.100;-1.670;2022-12-13T03:51:31;9.65;;;4.95;;
75236;SDS011;63826;48.100;-1.670;2022-12-13T03:53:57;10.27;;;5.07;;
75236;SDS011;63826;48.100;-1.670;2022-12-13T03:56:23;10.38;;;5.25;;
75236;SDS011;63826;48.100;-1.670;2022-12-13T03:58:50;8.85;;;5.07;;
75236;SDS011;63826;48.100;-1.670;2022-12-13T04:01:16;9.27;;;4.90;;
75236;SDS011;63826;48.100;-1.670;2022-12-13T04:03:43;10.38;;;5.45;;
75236;SDS011;63826;48.100;-1.670;2022-12-13T04:06:10;10.00;;;5.28;;
75236;SDS011;63826;48.100;-1.670;2022-12-13T04:08:37;9.23;;;5.35;;
75236;SDS011;63826;48.100;-1.670;2022-12-13T04:11:03;9.05;;;5.13;;
75236;SDS011;63826;48.100;-1.670;2022-12-13T04:13:50;9.48;;;4.88;;
75236;SDS011;63826;48.100;-1.670;2022-12-13T04:16:16;9.60;;;5.57;;
75236;SDS011;63826;48.100;-1.670;2022-12-13T04:18:42;9.38;;;5.03;;
75236;SDS011;63826;48.100;-1.670;2022-12-13T04:21:08;10.23;;;5.43;;
75236;SDS011;63826;48.100;-1.670;2022-12-13T04:23:34;10.00;;;5.32;;
75236;SDS011;63826;48.100;-1.670;2022-12-13T04:26:00;10.50;;;5.57;;
75236;SDS011;63826;48.100;-1.670;2022-12-13T04:28:26;10.48;;;6.18;;
75236;SDS011;63826;48.100;-1.670;2022-12-13T04:30:52;9.27;;;5.20;;
75236;SDS011;63826;48.100;-1.670;2022-12-13T04:33:18;9.73;;;5.22;;
75236;SDS011;63826;48.100;-1.670;2022-12-13T04:35:45;10.02;;;5.25;;
75236;SDS011;63826;48.100;-1.670;2022-12-13T04:38:11;10.43;;;5.40;;
75236;SDS011;63826;48.100;-1.670;2022-12-13T04:40:37;9.85;;;5.20;;
75236;SDS011;63826;48.100;-1.670;2022-12-13T04:43:03;9.90;;;5.40;;
75236;SDS011;63826;48.100;-1.670;2022-12-13T04:45:29;9.48;;;5.45;;
75236;SDS011;63826;48.100;-1.670;2022-12-13T04:47:55;10.43;;;5.32;;
75236;SDS011;63826;48.100;-1.670;2022-12-13T04:50:21;10.10;;;5.68;;
75236;SDS011;63826;48.100;-1.670;2022-12-13T04:52:47;9.52;;;5.20;;
75236;SDS011;63826;48.100;-1.670;2022-12-13T04:55:13;9.27;;;5.07;;
75236;SDS011;63826;48.100;-1.670;2022-12-13T04:57:39;10.63;;;5.35;;
75236;SDS011;63826;48.100;-1.670;2022-12-13T05:00:06;9.52;;;5.38;;
75236;SDS011;63826;48.100;-1.670;2022-12-13T05:02:33;9.68;;;4.90;;
75236;SDS011;63826;48.100;-1.670;2022-12-13T05:04:59;10.75;;;5.32;;
75236;SDS011;63826;48.100;-1.670;2022-12-13T05:07:26;9.80;;;4.97;;
75236;SDS011;63826;48.100;-1.670;2022-12-13T05:09:52;9.80;;;5.10;;
75236;SDS011;63826;48.100;-1.670;2022-12-13T05:12:18;9.32;;;4.78;;
75236;SDS011;63826;48.100;-1.670;2022-12-13T05:14:44;9.70;;;5.18;;
75236;SDS011;63826;48.100;-1.670;2022-12-13T05:17:10;10.00;;;5.30;;
75236;SDS011;63826;48.100;-1.670;2022-12-13T05:19:36;9.80;;;5.05;;
75236;SDS011;63826;48.100;-1.670;2022-12-13T05:22:02;9.88;;;5.22;;
75236;SDS011;63826;48.100;-1.670;2022-12-13T05:24:29;9.90;;;5.10;;
75236;SDS011;63826;48.100;-1.670;2022-12-13T05:26:56;9.10;;;4.95;;
75236;SDS011;63826;48.100;-1.670;2022-12-13T05:29:22;9.33;;;5.20;;
75236;SDS011;63826;48.100;-1.670;2022-12-13T05:31:48;10.07;;;5.15;;
75236;SDS011;63826;48.100;-1.670;2022-12-13T05:34:14;9.35;;;4.68;;
75236;SDS011;63826;48.100;-1.670;2022-12-13T05:36:40;9.93;;;5.25;;
75236;SDS011;63826;48.100;-1.670;2022-12-13T05:39:06;9.67;;;5.00;;
75236;SDS011;63826;48.100;-1.670;2022-12-13T05:41:32;8.57;;;4.50;;
75236;SDS011;63826;48.100;-1.670;2022-12-13T05:44:00;9.60;;;5.25;;
75236;SDS011;63826;48.100;-1.670;2022-12-13T05:46:26;10.20;;;5.35;;
75236;SDS011;63826;48.100;-1.670;2022-12-13T05:48:52;9.50;;;4.88;;
75236;SDS011;63826;48.100;-1.670;2022-12-13T05:51:18;9.57;;;4.70;;
75236;SDS011;63826;48.100;-1.670;2022-12-13T05:53:44;9.77;;;5.20;;
75236;SDS011;63826;48.100;-1.670;2022-12-13T05:56:11;9.95;;;5.10;;
75236;SDS011;63826;48.100;-1.670;2022-12-13T05:58:39;9.65;;;5.07;;
75236;SDS011;63826;48.100;-1.670;2022-12-13T06:01:06;10.03;;;5.27;;
75236;SDS011;63826;48.100;-1.670;2022-12-13T06:03:33;9.43;;;5.05;;
75236;SDS011;63826;48.100;-1.670;2022-12-13T06:05:59;9.18;;;5.00;;
75236;SDS011;63826;48.100;-1.670;2022-12-13T06:08:26;9.65;;;5.03;;
75236;SDS011;63826;48.100;-1.670;2022-12-13T06:10:55;9.43;;;5.10;;
75236;SDS011;63826;48.100;-1.670;2022-12-13T06:13:22;9.67;;;5.30;;
75236;SDS011;63826;48.100;-1.670;2022-12-13T06:15:48;9.77;;;5.22;;
75236;SDS011;63826;48.100;-1.670;2022-12-13T06:18:14;9.38;;;5.28;;
75236;SDS011;63826;48.100;-1.670;2022-12-13T06:20:40;9.05;;;4.70;;
75236;SDS011;63826;48.100;-1.670;2022-12-13T06:23:06;10.23;;;5.20;;
75236;SDS011;63826;48.100;-1.670;2022-12-13T06:25:32;9.50;;;5.65;;
75236;SDS011;63826;48.100;-1.670;2022-12-13T06:27:58;9.70;;;5.35;;
75236;SDS011;63826;48.100;-1.670;2022-12-13T06:30:24;9.40;;;5.20;;
75236;SDS011;63826;48.100;-1.670;2022-12-13T06:32:50;9.53;;;5.10;;
75236;SDS011;63826;48.100;-1.670;2022-12-13T06:35:16;9.15;;;5.20;;
75236;SDS011;63826;48.100;-1.670;2022-12-13T06:37:42;10.45;;;5.50;;
75236;SDS011;63826;48.100;-1.670;2022-12-13T06:40:08;10.90;;;5.78;;
75236;SDS011;63826;48.100;-1.670;2022-12-13T06:42:34;9.17;;;5.10;;
75236;SDS011;63826;48.100;-1.670;2022-12-13T06:45:00;9.90;;;5.40;;
75236;SDS011;63826;48.100;-1.670;2022-12-13T06:47:26;9.77;;;5.57;;
75236;SDS011;63826;48.100;-1.670;2022-12-13T06:49:52;9.75;;;5.35;;
75236;SDS011;63826;48.100;-1.670;2022-12-13T06:52:18;9.83;;;5.10;;
75236;SDS011;63826;48.100;-1.670;2022-12-13T06:54:44;9.35;;;5.10;;
75236;SDS011;63826;48.100;-1.670;2022-12-13T06:57:10;9.35;;;5.25;;
75236;SDS011;63826;48.100;-1.670;2022-12-13T06:59:36;10.15;;;5.40;;
75236;SDS011;63826;48.100;-1.670;2022-12-13T07:02:03;9.43;;;5.03;;
75236;SDS011;63826;48.100;-1.670;2022-12-13T07:04:29;10.43;;;5.80;;
75236;SDS011;63826;48.100;-1.670;2022-12-13T07:06:55;10.05;;;5.75;;
75236;SDS011;63826;48.100;-1.670;2022-12-13T07:09:21;9.50;;;5.05;;
75236;SDS011;63826;48.100;-1.670;2022-12-13T07:11:47;10.32;;;5.40;;
75236;SDS011;63826;48.100;-1.670;2022-12-13T07:14:13;9.65;;;5.50;;
75236;SDS011;63826;48.100;-1.670;2022-12-13T07:16:39;9.67;;;4.97;;
75236;SDS011;63826;48.100;-1.670;2022-12-13T07:19:05;10.70;;;5.75;;
75236;SDS011;63826;48.100;-1.670;2022-12-13T07:21:31;10.48;;;5.57;;
75236;SDS011;63826;48.100;-1.670;2022-12-13T07:23:57;10.48;;;5.57;;
75236;SDS011;63826;48.100;-1.670;2022-12-13T07:26:23;10.20;;;5.50;;
75236;SDS011;63826;48.100;-1.670;2022-12-13T07:28:50;10.70;;;5.40;;
75236;SDS011;63826;48.100;-1.670;2022-12-13T07:31:16;9.63;;;5.20;;
75236;SDS011;63826;48.100;-1.670;2022-12-13T07:33:43;9.80;;;5.53;;
75236;SDS011;63826;48.100;-1.670;2022-12-13T07:36:16;9.00;;;5.00;;
75236;SDS011;63826;48.100;-1.670;2022-12-13T07:38:43;10.00;;;5.47;;
75236;SDS011;63826;48.100;-1.670;2022-12-13T07:41:09;10.40;;;5.25;;
75236;SDS011;63826;48.100;-1.670;2022-12-13T07:43:35;9.07;;;4.70;;
75236;SDS011;63826;48.100;-1.670;2022-12-13T07:46:03;10.55;;;5.18;;
75236;SDS011;63826;48.100;-1.670;2022-12-13T07:48:29;9.65;;;5.10;;
75236;SDS011;63826;48.100;-1.670;2022-12-13T07:51:00;9.95;;;5.45;;
75236;SDS011;63826;48.100;-1.670;2022-12-13T07:53:26;15.93;;;6.18;;
75236;SDS011;63826;48.100;-1.670;2022-12-13T07:55:52;12.55;;;5.93;;
75236;SDS011;63826;48.100;-1.670;2022-12-13T07:58:18;14.48;;;5.57;;
75236;SDS011;63826;48.100;-1.670;2022-12-13T08:00:44;10.47;;;5.73;;
75236;SDS011;63826;48.100;-1.670;2022-12-13T08:03:11;12.77;;;6.00;;
75236;SDS011;63826;48.100;-1.670;2022-12-13T08:05:37;9.75;;;5.28;;
75236;SDS011;63826;48.100;-1.670;2022-12-13T08:08:04;10.90;;;6.05;;
75236;SDS011;63826;48.100;-1.670;2022-12-13T08:10:30;10.00;;;5.47;;
75236;SDS011;63826;48.100;-1.670;2022-12-13T08:12:57;10.65;;;5.90;;
75236;SDS011;63826;48.100;-1.670;2022-12-13T08:15:23;10.25;;;5.70;;
75236;SDS011;63826;48.100;-1.670;2022-12-13T08:17:50;10.35;;;5.72;;
75236;SDS011;63826;48.100;-1.670;2022-12-13T08:20:16;10.93;;;6.07;;
75236;SDS011;63826;48.100;-1.670;2022-12-13T08:22:43;11.27;;;6.22;;
75236;SDS011;63826;48.100;-1.670;2022-12-13T08:25:09;10.93;;;5.70;;
75236;SDS011;63826;48.100;-1.670;2022-12-13T08:27:35;10.68;;;5.85;;
75236;SDS011;63826;48.100;-1.670;2022-12-13T08:30:01;16.23;;;7.28;;
75236;SDS011;63826;48.100;-1.670;2022-12-13T08:32:27;13.60;;;7.65;;
75236;SDS011;63826;48.100;-1.670;2022-12-13T08:34:53;13.13;;;7.40;;
75236;SDS011;63826;48.100;-1.670;2022-12-13T08:37:19;12.70;;;6.93;;
75236;SDS011;63826;48.100;-1.670;2022-12-13T08:39:45;12.50;;;6.85;;
75236;SDS011;63826;48.100;-1.670;2022-12-13T08:42:12;12.73;;;6.88;;
75236;SDS011;63826;48.100;-1.670;2022-12-13T08:44:39;11.77;;;6.50;;
75236;SDS011;63826;48.100;-1.670;2022-12-13T08:47:05;11.73;;;6.68;;
75236;SDS011;63826;48.100;-1.670;2022-12-13T08:49:31;12.00;;;6.50;;
75236;SDS011;63826;48.100;-1.670;2022-12-13T08:51:57;11.57;;;6.47;;
75236;SDS011;63826;48.100;-1.670;2022-12-13T08:54:23;11.77;;;6.32;;
75236;SDS011;63826;48.100;-1.670;2022-12-13T08:56:49;11.37;;;6.27;;
75236;SDS011;63826;48.100;-1.670;2022-12-13T08:59:15;11.35;;;5.82;;
75236;SDS011;63826;48.100;-1.670;2022-12-13T09:01:42;12.32;;;6.65;;
75236;SDS011;63826;48.100;-1.670;2022-12-13T09:04:08;12.55;;;6.53;;
75236;SDS011;63826;48.100;-1.670;2022-12-13T09:06:34;12.02;;;6.18;;
75236;SDS011;63826;48.100;-1.670;2022-12-13T09:09:01;10.63;;;5.87;;
75236;SDS011;63826;48.100;-1.670;2022-12-13T09:11:27;13.00;;;6.40;;
75236;SDS011;63826;48.100;-1.670;2022-12-13T09:13:53;15.40;;;6.47;;
75236;SDS011;63826;48.100;-1.670;2022-12-13T09:16:19;11.15;;;5.95;;
75236;SDS011;63826;48.100;-1.670;2022-12-13T09:18:47;10.95;;;5.85;;
75236;SDS011;63826;48.100;-1.670;2022-12-13T09:21:14;11.77;;;6.40;;
75236;SDS011;63826;48.100;-1.670;2022-12-13T09:23:41;10.88;;;6.15;;
75236;SDS011;63826;48.100;-1.670;2022-12-13T09:26:07;11.48;;;6.13;;
75236;SDS011;63826;48.100;-1.670;2022-12-13T09:28:34;10.50;;;5.93;;
75236;SDS011;63826;48.100;-1.670;2022-12-13T09:33:33;11.57;;;5.67;;
75236;SDS011;63826;48.100;-1.670;2022-12-13T09:36:01;13.65;;;6.18;;
75236;SDS011;63826;48.100;-1.670;2022-12-13T09:38:29;11.55;;;5.80;;
75236;SDS011;63826;48.100;-1.670;2022-12-13T09:40:55;11.00;;;6.05;;
75236;SDS011;63826;48.100;-1.670;2022-12-13T09:43:29;11.88;;;6.38;;
75236;SDS011;63826;48.100;-1.670;2022-12-13T09:45:56;13.32;;;6.00;;
75236;SDS011;63826;48.100;-1.670;2022-12-13T09:48:22;12.50;;;6.35;;
75236;SDS011;63826;48.100;-1.670;2022-12-13T09:50:48;15.38;;;6.78;;
75236;SDS011;63826;48.100;-1.670;2022-12-13T09:53:16;13.10;;;6.38;;
75236;SDS011;63826;48.100;-1.670;2022-12-13T09:55:44;12.27;;;5.78;;
75236;SDS011;63826;48.100;-1.670;2022-12-13T09:58:13;13.40;;;6.45;;
75236;SDS011;63826;48.100;-1.670;2022-12-13T10:00:40;13.82;;;6.32;;
75236;SDS011;63826;48.100;-1.670;2022-12-13T10:03:09;11.77;;;6.30;;
75236;SDS011;63826;48.100;-1.670;2022-12-13T10:05:37;12.15;;;6.20;;
75236;SDS011;63826;48.100;-1.670;2022-12-13T10:08:13;11.88;;;5.60;;
75236;SDS011;63826;48.100;-1.670;2022-12-13T10:10:40;11.88;;;6.03;;
75236;SDS011;63826;48.100;-1.670;2022-12-13T10:15:40;10.75;;;5.68;;
75236;SDS011;63826;48.100;-1.670;2022-12-13T10:18:07;10.48;;;5.85;;
75236;SDS011;63826;48.100;-1.670;2022-12-13T10:20:35;11.98;;;5.80;;
75236;SDS011;63826;48.100;-1.670;2022-12-13T10:23:01;10.77;;;6.18;;
75236;SDS011;63826;48.100;-1.670;2022-12-13T10:25:44;11.52;;;5.90;;
75236;SDS011;63826;48.100;-1.670;2022-12-13T10:28:11;11.05;;;5.78;;
75236;SDS011;63826;48.100;-1.670;2022-12-13T10:30:40;11.02;;;5.95;;
75236;SDS011;63826;48.100;-1.670;2022-12-13T10:33:17;10.90;;;5.67;;
75236;SDS011;63826;48.100;-1.670;2022-12-13T10:35:44;10.32;;;6.03;;
75236;SDS011;63826;48.100;-1.670;2022-12-13T10:38:26;13.70;;;6.05;;
75236;SDS011;63826;48.100;-1.670;2022-12-13T10:40:53;10.73;;;5.45;;
75236;SDS011;63826;48.100;-1.670;2022-12-13T10:43:23;10.40;;;5.47;;
75236;SDS011;63826;48.100;-1.670;2022-12-13T10:50:55;13.57;;;5.45;;
75236;SDS011;63826;48.100;-1.670;2022-12-13T10:53:22;11.82;;;5.50;;
75236;SDS011;63826;48.100;-1.670;2022-12-13T10:55:54;9.43;;;4.80;;
75236;SDS011;63826;48.100;-1.670;2022-12-13T10:58:21;9.80;;;4.60;;
75236;SDS011;63826;48.100;-1.670;2022-12-13T11:00:47;10.68;;;5.00;;
75236;SDS011;63826;48.100;-1.670;2022-12-13T11:03:32;9.48;;;4.97;;
75236;SDS011;63826;48.100;-1.670;2022-12-13T11:06:16;10.77;;;5.20;;
75236;SDS011;63826;48.100;-1.670;2022-12-13T11:08:42;9.77;;;4.60;;
75236;SDS011;63826;48.100;-1.670;2022-12-13T11:11:09;9.43;;;4.30;;
75236;SDS011;63826;48.100;-1.670;2022-12-13T11:13:39;10.55;;;4.80;;
75236;SDS011;63826;48.100;-1.670;2022-12-13T11:16:19;10.00;;;5.00;;
75236;SDS011;63826;48.100;-1.670;2022-12-13T11:18:49;9.20;;;4.20;;
75236;SDS011;63826;48.100;-1.670;2022-12-13T11:21:21;9.70;;;4.68;;
75236;SDS011;63826;48.100;-1.670;2022-12-13T11:23:48;8.47;;;4.30;;
75236;SDS011;63826;48.100;-1.670;2022-12-13T11:26:16;9.85;;;4.60;;
75236;SDS011;63826;48.100;-1.670;2022-12-13T11:39:36;11.00;;;4.40;;
75236;SDS011;63826;48.100;-1.670;2022-12-13T11:47:08;11.30;;;4.78;;
75236;SDS011;63826;48.100;-1.670;2022-12-13T11:49:38;11.45;;;4.93;;
75236;SDS011;63826;48.100;-1.670;2022-12-13T11:52:10;10.55;;;4.70;;
75236;SDS011;63826;48.100;-1.670;2022-12-13T11:54:42;15.55;;;5.32;;
75236;SDS011;63826;48.100;-1.670;2022-12-13T11:57:12;9.30;;;4.60;;
75236;SDS011;63826;48.100;-1.670;2022-12-13T11:59:44;9.70;;;4.70;;
75236;SDS011;63826;48.100;-1.670;2022-12-13T12:05:15;8.95;;;4.43;;
75236;SDS011;63826;48.100;-1.670;2022-12-13T12:07:44;9.05;;;4.53;;
75236;SDS011;63826;48.100;-1.670;2022-12-13T12:12:38;9.10;;;4.60;;
75236;SDS011;63826;48.100;-1.670;2022-12-13T12:15:11;9.50;;;4.80;;
75236;SDS011;63826;48.100;-1.670;2022-12-13T12:17:38;10.75;;;4.50;;
75236;SDS011;63826;48.100;-1.670;2022-12-13T12:20:09;9.88;;;4.68;;
75236;SDS011;63826;48.100;-1.670;2022-12-13T12:22:41;9.68;;;4.47;;
75236;SDS011;63826;48.100;-1.670;2022-12-13T12:28:02;10.02;;;4.70;;
75236;SDS011;63826;48.100;-1.670;2022-12-13T12:33:09;9.52;;;4.70;;
75236;SDS011;63826;48.100;-1.670;2022-12-13T12:41:17;9.75;;;4.32;;
75236;SDS011;63826;48.100;-1.670;2022-12-13T12:43:50;9.85;;;4.60;;
75236;SDS011;63826;48.100;-1.670;2022-12-13T12:57:06;13.57;;;5.72;;
75236;SDS011;63826;48.100;-1.670;2022-12-13T13:04:38;13.70;;;5.72;;
75236;SDS011;63826;48.100;-1.670;2022-12-13T13:07:11;11.80;;;5.47;;
75236;SDS011;63826;48.100;-1.670;2022-12-13T13:09:39;11.18;;;5.43;;
75236;SDS011;63826;48.100;-1.670;2022-12-13T13:12:05;10.50;;;5.55;;
75236;SDS011;63826;48.100;-1.670;2022-12-13T13:14:33;11.20;;;5.25;;
75236;SDS011;63826;48.100;-1.670;2022-12-13T13:27:43;10.10;;;5.00;;
75236;SDS011;63826;48.100;-1.670;2022-12-13T13:30:19;9.55;;;4.40;;
75236;SDS011;63826;48.100;-1.670;2022-12-13T13:32:46;9.90;;;4.43;;
75236;SDS011;63826;48.100;-1.670;2022-12-13T13:40:46;10.05;;;4.60;;
75236;SDS011;63826;48.100;-1.670;2022-12-13T13:43:13;10.35;;;4.50;;
75236;SDS011;63826;48.100;-1.670;2022-12-13T13:54:05;9.85;;;4.82;;
75236;SDS011;63826;48.100;-1.670;2022-12-13T14:12:46;9.02;;;4.35;;
75236;SDS011;63826;48.100;-1.670;2022-12-13T14:23:24;8.40;;;4.05;;
75236;SDS011;63826;48.100;-1.670;2022-12-13T14:30:46;7.82;;;3.95;;
75236;SDS011;63826;48.100;-1.670;2022-12-13T14:33:16;7.87;;;3.80;;
75236;SDS011;63826;48.100;-1.670;2022-12-13T14:35:54;10.23;;;4.45;;
75236;SDS011;63826;48.100;-1.670;2022-12-13T14:38:21;9.75;;;4.40;;
75236;SDS011;63826;48.100;-1.670;2022-12-13T14:40:49;9.57;;;4.07;;
75236;SDS011;63826;48.100;-1.670;2022-12-13T14:43:31;8.02;;;3.83;;
75236;SDS011;63826;48.100;-1.670;2022-12-13T14:45:58;7.77;;;3.80;;
75236;SDS011;63826;48.100;-1.670;2022-12-13T14:48:25;8.30;;;3.95;;
75236;SDS011;63826;48.100;-1.670;2022-12-13T14:50:52;8.93;;;4.25;;
75236;SDS011;63826;48.100;-1.670;2022-12-13T14:53:28;10.85;;;4.30;;
75236;SDS011;63826;48.100;-1.670;2022-12-13T14:58:30;9.03;;;4.40;;
75236;SDS011;63826;48.100;-1.670;2022-12-13T15:00:56;8.45;;;4.32;;
75236;SDS011;63826;48.100;-1.670;2022-12-13T15:03:24;9.05;;;4.40;;
75236;SDS011;63826;48.100;-1.670;2022-12-13T15:05:51;9.07;;;4.10;;
75236;SDS011;63826;48.100;-1.670;2022-12-13T15:08:18;9.52;;;4.72;;
75236;SDS011;63826;48.100;-1.670;2022-12-13T15:10:45;8.20;;;4.00;;
75236;SDS011;63826;48.100;-1.670;2022-12-13T15:13:25;9.02;;;4.40;;
75236;SDS011;63826;48.100;-1.670;2022-12-13T15:15:53;9.15;;;4.55;;
75236;SDS011;63826;48.100;-1.670;2022-12-13T15:18:21;9.02;;;4.25;;
75236;SDS011;63826;48.100;-1.670;2022-12-13T15:20:48;10.18;;;4.68;;
75236;SDS011;63826;48.100;-1.670;2022-12-13T15:23:36;9.30;;;4.60;;
75236;SDS011;63826;48.100;-1.670;2022-12-13T15:26:02;10.00;;;4.53;;
75236;SDS011;63826;48.100;-1.670;2022-12-13T15:28:32;8.82;;;4.32;;
75236;SDS011;63826;48.100;-1.670;2022-12-13T15:30:59;8.75;;;4.45;;
75236;SDS011;63826;48.100;-1.670;2022-12-13T15:33:26;9.82;;;5.00;;
75236;SDS011;63826;48.100;-1.670;2022-12-13T15:38:31;9.93;;;4.85;;
75236;SDS011;63826;48.100;-1.670;2022-12-13T15:40:58;10.07;;;4.95;;
75236;SDS011;63826;48.100;-1.670;2022-12-13T15:43:36;10.50;;;4.88;;
75236;SDS011;63826;48.100;-1.670;2022-12-13T15:46:07;8.93;;;4.38;;
75236;SDS011;63826;48.100;-1.670;2022-12-13T15:48:37;9.63;;;4.60;;
75236;SDS011;63826;48.100;-1.670;2022-12-13T15:51:09;9.25;;;4.72;;
75236;SDS011;63826;48.100;-1.670;2022-12-13T15:53:36;8.80;;;4.35;;
75236;SDS011;63826;48.100;-1.670;2022-12-13T15:58:52;10.48;;;4.45;;
75236;SDS011;63826;48.100;-1.670;2022-12-13T16:01:25;9.27;;;4.50;;
75236;SDS011;63826;48.100;-1.670;2022-12-13T16:03:51;9.32;;;4.68;;
75236;SDS011;63826;48.100;-1.670;2022-12-13T16:06:17;10.23;;;4.47;;
75236;SDS011;63826;48.100;-1.670;2022-12-13T16:08:47;9.20;;;4.43;;
75236;SDS011;63826;48.100;-1.670;2022-12-13T16:11:14;9.52;;;4.50;;
75236;SDS011;63826;48.100;-1.670;2022-12-13T16:13:40;8.70;;;4.17;;
75236;SDS011;63826;48.100;-1.670;2022-12-13T16:16:21;8.68;;;4.13;;
75236;SDS011;63826;48.100;-1.670;2022-12-13T16:18:51;8.35;;;4.25;;
75236;SDS011;63826;48.100;-1.670;2022-12-13T16:21:18;9.52;;;4.72;;
75236;SDS011;63826;48.100;-1.670;2022-12-13T16:23:44;10.13;;;4.50;;
75236;SDS011;63826;48.100;-1.670;2022-12-13T16:26:11;8.67;;;4.30;;
75236;SDS011;63826;48.100;-1.670;2022-12-13T16:28:37;10.25;;;4.40;;
75236;SDS011;63826;48.100;-1.670;2022-12-13T16:31:16;8.70;;;4.20;;
75236;SDS011;63826;48.100;-1.670;2022-12-13T16:33:43;7.82;;;3.95;;
75236;SDS011;63826;48.100;-1.670;2022-12-13T16:36:09;8.65;;;4.32;;
75236;SDS011;63826;48.100;-1.670;2022-12-13T16:38:35;9.10;;;3.93;;
75236;SDS011;63826;48.100;-1.670;2022-12-13T16:41:01;9.07;;;4.40;;
75236;SDS011;63826;48.100;-1.670;2022-12-13T16:43:27;9.40;;;4.75;;
75236;SDS011;63826;48.100;-1.670;2022-12-13T16:45:55;8.80;;;4.57;;
75236;SDS011;63826;48.100;-1.670;2022-12-13T16:48:22;8.48;;;4.13;;
75236;SDS011;63826;48.100;-1.670;2022-12-13T16:50:49;8.52;;;4.40;;
75236;SDS011;63826;48.100;-1.670;2022-12-13T16:53:15;8.95;;;4.30;;
75236;SDS011;63826;48.100;-1.670;2022-12-13T16:55:42;8.60;;;4.10;;
75236;SDS011;63826;48.100;-1.670;2022-12-13T16:58:17;9.18;;;4.85;;